Time;durP1;ratioP1;P1;durP2;ratioP2;P2;SDS_P1;SDS_P2;PMS_P1;PMS_P2;Temp;Humidity;BMP_temperature;BMP_pressure;BME280_temperature;BME280_humidity;BME280_pressure;Samples;Min_cycle;Max_cycle;Signal;HPM_P1;HPM_P2
2024/04/03 00:01:47;;;;;;;;;;;;;;;21.47;37.47;100556.17;103018;1292;62987;-83
2024/04/03 00:04:13;;;;;;;;;;;;;;;21.47;37.53;100560.85;102974;1289;63721;-82
2024/04/03 00:06:38;;;;;;;;;;;;;;;21.46;37.48;100564.63;102996;1291;63762;-83
2024/04/03 00:09:04;;;;;;;;;;;;;;;21.47;37.42;100573.90;102953;1292;63008;-83
2024/04/03 00:11:29;;;;;;;;;;;;;;;21.46;37.39;100577.52;103014;1289;63033;-83
2024/04/03 00:13:55;;;;;;;;;;;;;;;21.46;37.43;100576.28;103022;1291;64380;-82
2024/04/03 00:16:20;;;;;;;;;;;;;;;21.46;37.47;100573.76;102918;1291;63723;-83
2024/04/03 00:18:46;;;;;;;;;;;;;;;21.46;37.36;100579.70;102839;1292;64109;-84
2024/04/03 00:21:12;;;;;;;;;;;;;;;21.46;37.47;100585.23;102859;1294;63090;-84
2024/04/03 00:23:38;;;;;;;;;;;;;;;21.46;37.30;100583.64;103042;1289;63043;-84
2024/04/03 00:26:04;;;;;;;;;;;;;;;21.46;37.36;100587.05;102956;1292;62980;-82
2024/04/03 00:28:30;;;;;;;;;;;;;;;21.46;37.47;100589.91;103162;1294;64262;-81
2024/04/03 00:30:55;;;;;;;;;;;;;;;21.45;37.46;100587.23;102879;1291;63423;-83
2024/04/03 00:33:22;;;;;;;;;;;;;;;21.45;37.28;100589.96;102856;1294;63059;-84
2024/04/03 00:36:00;;;;;;;;;;;;;;;21.45;37.39;100589.60;103098;1291;63394;-83
2024/04/03 00:38:25;;;;;;;;;;;;;;;21.45;37.38;100586.23;102879;1292;72937;-81
2024/04/03 00:40:54;;;;;;;;;;;;;;;21.45;37.41;100586.58;102861;1292;63002;-83
2024/04/03 00:43:21;;;;;;;;;;;;;;;21.45;37.46;100585.71;103032;1291;63016;-83
2024/04/03 00:45:46;;;;;;;;;;;;;;;21.45;37.27;100590.90;102904;1291;63014;-82
2024/04/03 00:48:12;;;;;;;;;;;;;;;21.44;37.32;100594.31;102855;1296;63022;-83
2024/04/03 00:50:38;;;;;;;;;;;;;;;21.44;37.35;100595.95;103133;1291;63042;-83
2024/04/03 00:53:04;;;;;;;;;;;;;;;21.44;37.30;100597.73;102914;1291;63110;-83
2024/04/03 00:55:30;;;;;;;;;;;;;;;21.44;37.34;100599.18;103090;1294;63048;-83
2024/04/03 00:57:56;;;;;;;;;;;;;;;21.44;37.42;100601.48;102880;1294;62964;-82
2024/04/03 01:00:21;;;;;;;;;;;;;;;21.44;37.29;100608.13;103005;1294;63097;-83
2024/04/03 01:02:47;;;;;;;;;;;;;;;21.44;37.32;100609.02;103007;1292;63034;-82
2024/04/03 01:05:13;;;;;;;;;;;;;;;21.44;37.35;100619.06;102915;1294;63083;-82
2024/04/03 01:07:38;;;;;;;;;;;;;;;21.43;37.30;100616.41;102953;1291;63133;-82
2024/04/03 01:10:05;;;;;;;;;;;;;;;21.43;37.23;100614.99;102828;1291;62948;-82
2024/04/03 01:12:32;;;;;;;;;;;;;;;21.43;37.21;100616.45;102836;1297;63008;-83
2024/04/03 01:14:59;;;;;;;;;;;;;;;21.42;37.29;100618.25;102839;1291;76253;-83
2024/04/03 01:17:24;;;;;;;;;;;;;;;21.42;37.27;100616.45;102842;1296;63067;-83
2024/04/03 01:19:50;;;;;;;;;;;;;;;21.42;37.29;100617.58;102844;1292;63001;-83
2024/04/03 01:22:16;;;;;;;;;;;;;;;21.42;37.30;100619.89;102708;1297;63350;-82
2024/04/03 01:24:41;;;;;;;;;;;;;;;21.42;37.23;100619.71;102801;1296;64269;-83
2024/04/03 01:27:07;;;;;;;;;;;;;;;21.42;37.35;100624.55;102855;1291;63179;-83
2024/04/03 01:29:35;;;;;;;;;;;;;;;21.42;37.17;100623.88;102835;1293;64230;-83
2024/04/03 01:32:02;;;;;;;;;;;;;;;21.41;37.28;100629.98;102766;1294;63104;-82
2024/04/03 01:34:28;;;;;;;;;;;;;;;21.41;37.31;100627.33;102731;1297;72665;-82
2024/04/03 01:36:53;;;;;;;;;;;;;;;21.41;37.31;100627.15;102736;1295;63011;-81
2024/04/03 01:39:19;;;;;;;;;;;;;;;21.41;37.21;100634.30;102739;1294;63796;-82
2024/04/03 01:41:44;;;;;;;;;;;;;;;21.40;37.26;100634.17;102838;1292;64274;-83
2024/04/03 01:44:10;;;;;;;;;;;;;;;21.40;37.27;100635.02;103001;1291;68953;-82
2024/04/03 01:46:35;;;;;;;;;;;;;;;21.40;37.18;100630.04;103007;1291;72479;-82
2024/04/03 01:49:01;;;;;;;;;;;;;;;21.40;37.23;100628.29;102889;1292;63145;-82
2024/04/03 01:51:27;;;;;;;;;;;;;;;21.40;37.15;100622.02;103050;1291;64043;-84
2024/04/03 01:53:52;;;;;;;;;;;;;;;21.40;37.28;100624.36;103129;1290;63030;-81
2024/04/03 01:56:18;;;;;;;;;;;;;;;21.39;37.23;100631.91;102923;1292;63004;-83
2024/04/03 01:58:43;;;;;;;;;;;;;;;21.39;37.24;100636.40;103005;1294;72586;-81
2024/04/03 02:01:09;;;;;;;;;;;;;;;21.38;37.20;100634.67;102840;1291;63077;-83
2024/04/03 02:03:34;;;;;;;;;;;;;;;21.38;37.24;100632.52;102854;1294;63011;-82
2024/04/03 02:06:00;;;;;;;;;;;;;;;21.39;37.30;100637.34;103016;1289;64573;-83
2024/04/03 02:08:27;;;;;;;;;;;;;;;21.38;37.15;100640.77;102869;1291;63340;-83
2024/04/03 02:10:53;;;;;;;;;;;;;;;21.38;37.30;100636.84;103008;1294;72493;-82
2024/04/03 02:13:19;;;;;;;;;;;;;;;21.38;37.08;100646.86;102929;1292;63020;-83
2024/04/03 02:15:52;;;;;;;;;;;;;;;21.38;37.19;100654.95;102858;1296;63745;-82
2024/04/03 02:18:17;;;;;;;;;;;;;;;21.38;37.20;100656.94;103081;1291;62979;-83
2024/04/03 02:20:43;;;;;;;;;;;;;;;21.37;37.32;100651.79;102831;1297;63101;-80
2024/04/03 02:23:08;;;;;;;;;;;;;;;21.37;37.22;100654.82;102233;1291;704830;-83
2024/04/03 02:25:34;;;;;;;;;;;;;;;21.37;37.28;100656.98;102867;1295;64057;-82
2024/04/03 02:28:00;;;;;;;;;;;;;;;21.37;37.19;100651.62;103014;1292;63013;-84
2024/04/03 02:30:25;;;;;;;;;;;;;;;21.36;37.24;100654.70;103062;1291;62945;-83
2024/04/03 02:32:51;;;;;;;;;;;;;;;21.36;37.16;100653.24;102890;1292;62938;-82
2024/04/03 02:35:16;;;;;;;;;;;;;;;21.36;37.17;100662.57;103056;1292;63881;-82
2024/04/03 02:37:42;;;;;;;;;;;;;;;21.36;37.21;100667.22;102989;1291;63611;-80
2024/04/03 02:40:08;;;;;;;;;;;;;;;21.36;37.12;100669.03;103152;1291;63466;-83
2024/04/03 02:42:33;;;;;;;;;;;;;;;21.36;37.15;100668.70;102703;1291;63085;-82
2024/04/03 02:44:59;;;;;;;;;;;;;;;21.36;37.28;100672.13;102851;1292;63084;-83
2024/04/03 02:47:25;;;;;;;;;;;;;;;21.36;37.13;100669.55;102897;1290;64313;-83
2024/04/03 02:49:51;;;;;;;;;;;;;;;21.35;37.24;100672.11;102909;1292;63883;-82
2024/04/03 02:52:16;;;;;;;;;;;;;;;21.35;37.24;100672.85;102945;1291;63702;-84
2024/04/03 02:54:42;;;;;;;;;;;;;;;21.36;37.15;100675.35;102957;1292;64000;-84
2024/04/03 02:57:07;;;;;;;;;;;;;;;21.35;37.24;100685.39;102978;1292;62930;-83
2024/04/03 02:59:36;;;;;;;;;;;;;;;21.35;37.13;100681.66;103024;1294;63008;-83
2024/04/03 03:02:02;;;;;;;;;;;;;;;21.35;37.21;100681.84;102937;1292;63937;-81
2024/04/03 03:04:27;;;;;;;;;;;;;;;21.35;37.15;100683.98;102885;1292;62952;-82
2024/04/03 03:06:53;;;;;;;;;;;;;;;21.34;37.20;100689.59;103006;1294;62950;-82
2024/04/03 03:09:20;;;;;;;;;;;;;;;21.34;37.21;100691.18;103059;1291;63487;-83
2024/04/03 03:11:46;;;;;;;;;;;;;;;21.34;37.14;100688.52;103030;1291;63824;-82
2024/04/03 03:14:12;;;;;;;;;;;;;;;21.34;37.07;100689.08;102976;1291;62970;-83
2024/04/03 03:16:38;;;;;;;;;;;;;;;21.34;37.11;100691.05;102906;1291;63126;-84
2024/04/03 03:19:03;;;;;;;;;;;;;;;21.34;37.23;100692.64;102950;1291;63937;-83
2024/04/03 03:21:29;;;;;;;;;;;;;;;21.34;36.99;100695.34;102951;1294;76352;-82
2024/04/03 03:23:55;;;;;;;;;;;;;;;21.34;37.15;100694.98;102893;1291;63061;-83
2024/04/03 03:26:20;;;;;;;;;;;;;;;21.34;37.11;100700.20;103049;1291;63811;-82
2024/04/03 03:28:46;;;;;;;;;;;;;;;21.33;37.22;100699.35;103058;1291;63030;-81
2024/04/03 03:31:12;;;;;;;;;;;;;;;21.33;37.16;100695.61;102991;1292;63343;-83
2024/04/03 03:33:37;;;;;;;;;;;;;;;21.33;37.19;100697.56;102903;1294;78113;-82
2024/04/03 03:36:03;;;;;;;;;;;;;;;21.33;37.14;100693.61;103054;1292;63005;-82
2024/04/03 03:38:29;;;;;;;;;;;;;;;21.32;37.03;100693.65;102886;1292;64689;-82
2024/04/03 03:40:54;;;;;;;;;;;;;;;21.33;37.10;100693.82;102995;1291;64092;-84
2024/04/03 03:43:20;;;;;;;;;;;;;;;21.33;37.10;100694.36;102958;1292;62886;-82
2024/04/03 03:45:46;;;;;;;;;;;;;;;21.32;37.25;100692.95;102971;1292;76012;-81
2024/04/03 03:48:12;;;;;;;;;;;;;;;21.32;37.14;100698.15;102885;1291;62945;-81
2024/04/03 03:53:22;;;;;;;;;;;;;;;21.32;37.11;100709.82;103129;1291;72976;-83
2024/04/03 03:55:47;;;;;;;;;;;;;;;21.32;37.06;100713.60;103183;1294;64469;-82
2024/04/03 03:58:13;;;;;;;;;;;;;;;21.31;37.05;100717.39;102987;1291;63039;-83
2024/04/03 04:00:38;;;;;;;;;;;;;;;21.31;37.06;100719.91;103009;1291;62987;-83
2024/04/03 04:03:05;;;;;;;;;;;;;;;21.31;37.09;100723.33;103079;1289;63039;-84
2024/04/03 04:05:30;;;;;;;;;;;;;;;21.30;37.11;100728.77;103100;1294;63003;-82
2024/04/03 04:07:56;;;;;;;;;;;;;;;21.29;37.00;100733.70;103105;1292;63027;-82
2024/04/03 04:10:21;;;;;;;;;;;;;;;21.28;37.26;100738.58;102937;1291;63042;-83
2024/04/03 04:12:47;;;;;;;;;;;;;;;21.26;37.12;100748.00;103003;1291;63005;-82
2024/04/03 04:15:13;;;;;;;;;;;;;;;21.24;37.10;100752.41;103054;1294;62931;-83
2024/04/03 04:17:38;;;;;;;;;;;;;;;21.23;37.18;100759.30;103241;1291;62994;-82
2024/04/03 04:20:07;;;;;;;;;;;;;;;21.22;37.02;100762.25;103127;1294;75874;-82
2024/04/03 04:22:34;;;;;;;;;;;;;;;21.19;37.07;100767.83;103223;1290;63020;-82
2024/04/03 04:25:00;;;;;;;;;;;;;;;21.18;36.96;100770.44;103238;1294;63018;-82
2024/04/03 04:27:26;;;;;;;;;;;;;;;21.15;36.93;100763.80;103287;1294;72336;-83
2024/04/03 04:29:52;;;;;;;;;;;;;;;21.13;36.75;100767.73;103221;1292;64149;-83
2024/04/03 04:32:17;;;;;;;;;;;;;;;21.11;36.84;100771.30;103517;1290;63126;-83
2024/04/03 04:34:43;;;;;;;;;;;;;;;21.08;36.61;100772.73;103557;1294;63117;-82
2024/04/03 04:37:08;;;;;;;;;;;;;;;21.06;36.66;100777.01;103850;1293;63040;-84
2024/04/03 04:39:35;;;;;;;;;;;;;;;21.04;36.80;100773.56;103663;1291;72414;-82
2024/04/03 04:42:01;;;;;;;;;;;;;;;21.02;36.67;100767.27;103682;1294;76047;-82
2024/04/03 04:44:27;;;;;;;;;;;;;;;21.01;36.63;100769.84;103677;1291;63030;-82
2024/04/03 04:46:57;;;;;;;;;;;;;;;20.99;36.65;100773.92;103557;1290;62996;-83
2024/04/03 04:49:22;;;;;;;;;;;;;;;20.98;36.66;100775.97;103565;1297;72684;-83
2024/04/03 04:51:48;;;;;;;;;;;;;;;20.95;36.71;100777.58;103459;1294;63019;-83
2024/04/03 04:54:17;;;;;;;;;;;;;;;20.93;36.64;100776.63;103725;1294;62754;-83
2024/04/03 04:56:45;;;;;;;;;;;;;;;20.91;36.50;100772.88;103764;1294;62895;-83
2024/04/03 04:59:11;;;;;;;;;;;;;;;20.87;36.57;100774.73;104369;1294;72636;-82
2024/04/03 05:01:38;;;;;;;;;;;;;;;20.85;36.48;100775.06;104185;1297;62902;-80
2024/04/03 05:04:05;;;;;;;;;;;;;;;20.82;36.36;100774.41;104310;1295;62962;-81
2024/04/03 05:06:30;;;;;;;;;;;;;;;20.80;36.45;100782.58;104394;1294;62943;-81
2024/04/03 05:08:56;;;;;;;;;;;;;;;20.79;36.35;100788.39;104764;1292;61171;-82
2024/04/03 05:11:22;;;;;;;;;;;;;;;20.79;36.13;100788.77;104691;1291;61077;-80
2024/04/03 05:13:47;;;;;;;;;;;;;;;20.79;36.30;100793.05;104323;1293;63025;-81
2024/04/03 05:16:13;;;;;;;;;;;;;;;20.79;36.25;100787.70;104576;1294;63123;-80
2024/04/03 05:18:39;;;;;;;;;;;;;;;20.79;36.22;100783.75;103451;1293;62884;-81
2024/04/03 05:21:06;;;;;;;;;;;;;;;20.79;36.15;100789.10;105867;1294;72596;-81
2024/04/03 05:23:32;;;;;;;;;;;;;;;20.79;36.20;100788.41;105713;1291;61209;-82
2024/04/03 05:26:01;;;;;;;;;;;;;;;20.78;36.11;100792.56;105925;1291;60962;-81
2024/04/03 05:28:27;;;;;;;;;;;;;;;20.78;36.14;100795.25;105198;1291;62552;-82
2024/04/03 05:30:53;;;;;;;;;;;;;;;20.76;36.12;100789.29;103723;1291;62984;-81
2024/04/03 05:33:19;;;;;;;;;;;;;;;20.70;36.14;100789.17;103920;1291;64190;-82
2024/04/03 05:35:55;;;;;;;;;;;;;;;20.64;36.19;100791.16;103869;1291;62943;-84
2024/04/03 05:38:21;;;;;;;;;;;;;;;20.63;36.16;100797.02;103821;1293;62892;-82
2024/04/03 05:40:50;;;;;;;;;;;;;;;20.63;36.25;100800.21;104726;1290;62898;-82
2024/04/03 05:43:15;;;;;;;;;;;;;;;20.63;36.32;100801.12;104709;1291;75993;-82
2024/04/03 05:45:41;;;;;;;;;;;;;;;20.64;36.30;100806.42;104488;1291;60715;-81
2024/04/03 05:48:07;;;;;;;;;;;;;;;20.62;36.24;100811.86;104533;1291;62862;-81
2024/04/03 05:50:32;;;;;;;;;;;;;;;20.60;36.01;100818.29;104334;1291;62828;-82
2024/04/03 05:52:58;;;;;;;;;;;;;;;20.53;36.04;100816.77;105095;1291;61142;-81
2024/04/03 05:55:23;;;;;;;;;;;;;;;20.48;35.71;100815.55;104956;1291;63584;-83
2024/04/03 05:57:50;;;;;;;;;;;;;;;20.47;35.88;100815.59;104809;1290;62955;-80
2024/04/03 06:00:16;;;;;;;;;;;;;;;20.49;36.00;100812.42;105032;1290;62671;-82
2024/04/03 06:02:41;;;;;;;;;;;;;;;20.52;35.98;100815.20;105030;1291;63079;-83
2024/04/03 06:05:07;;;;;;;;;;;;;;;20.55;35.98;100816.98;105152;1291;62872;-82
2024/04/03 06:07:35;;;;;;;;;;;;;;;20.56;35.94;100824.05;105203;1290;61845;-82
2024/04/03 06:10:01;;;;;;;;;;;;;;;20.56;35.82;100825.66;104893;1290;61081;-83
2024/04/03 06:12:28;;;;;;;;;;;;;;;20.57;35.88;100821.84;104937;1291;62950;-82
2024/04/03 06:14:53;;;;;;;;;;;;;;;20.59;35.77;100820.80;104875;1291;63005;-82
2024/04/03 06:17:19;;;;;;;;;;;;;;;20.60;35.80;100818.25;105019;1292;62929;-83
2024/04/03 06:19:45;;;;;;;;;;;;;;;20.61;35.59;100823.20;105013;1291;61101;-81
2024/04/03 06:22:10;;;;;;;;;;;;;;;20.63;35.61;100826.50;105004;1289;60586;-81
2024/04/03 06:24:36;;;;;;;;;;;;;;;20.64;35.55;100834.46;105222;1292;62886;-83
2024/04/03 06:27:02;;;;;;;;;;;;;;;20.64;35.46;100832.48;104823;1291;63117;-82
2024/04/03 06:29:27;;;;;;;;;;;;;;;20.62;35.40;100834.44;104724;1294;62989;-82
2024/04/03 06:31:53;;;;;;;;;;;;;;;20.60;35.22;100830.76;104586;1293;62922;-81
2024/04/03 06:34:18;;;;;;;;;;;;;;;20.61;35.18;100828.95;104838;1293;62720;-81
2024/04/03 06:36:44;;;;;;;;;;;;;;;20.61;35.01;100833.41;104803;1294;62976;-81
2024/04/03 06:39:09;;;;;;;;;;;;;;;20.60;35.04;100832.18;104805;1294;62810;-81
2024/04/03 06:41:35;;;;;;;;;;;;;;;20.60;35.04;100830.06;104901;1292;62911;-81
2024/04/03 06:44:01;;;;;;;;;;;;;;;20.58;34.87;100829.86;104768;1294;62817;-82
2024/04/03 06:46:26;;;;;;;;;;;;;;;20.57;34.82;100833.68;104760;1294;63004;-82
2024/04/03 06:48:52;;;;;;;;;;;;;;;20.57;34.70;100836.34;104816;1293;62997;-81
2024/04/03 06:51:17;;;;;;;;;;;;;;;20.55;34.59;100836.34;104917;1297;63026;-81
2024/04/03 06:53:43;;;;;;;;;;;;;;;20.54;34.66;100833.73;104952;1293;62903;-82
2024/04/03 06:56:08;;;;;;;;;;;;;;;20.53;34.68;100833.73;105067;1294;62968;-83
2024/04/03 06:58:38;;;;;;;;;;;;;;;20.55;34.72;100835.98;104932;1294;63064;-82
2024/04/03 07:01:04;;;;;;;;;;;;;;;20.59;34.82;100840.70;105036;1291;72581;-82
2024/04/03 07:03:31;;;;;;;;;;;;;;;20.60;34.80;100835.45;105266;1289;76002;-82
2024/04/03 07:05:56;;;;;;;;;;;;;;;20.60;35.02;100836.89;105157;1294;61093;-82
2024/04/03 07:08:22;;;;;;;;;;;;;;;20.64;35.14;100833.00;105083;1291;60714;-83
2024/04/03 07:10:48;;;;;;;;;;;;;;;20.69;35.32;100834.83;105200;1289;60951;-83
2024/04/03 07:13:13;;;;;;;;;;;;;;;20.72;35.15;100833.92;105084;1291;62725;-83
2024/04/03 07:15:39;;;;;;;;;;;;;;;20.74;35.22;100830.04;104838;1294;63414;-83
2024/04/03 07:18:04;;;;;;;;;;;;;;;20.75;35.26;100827.08;105009;1290;62969;-83
2024/04/03 07:20:30;;;;;;;;;;;;;;;20.76;35.07;100828.27;105052;1289;61309;-82
2024/04/03 07:22:56;;;;;;;;;;;;;;;20.77;34.94;100830.36;104972;1292;61879;-82
2024/04/03 07:25:22;;;;;;;;;;;;;;;20.78;34.77;100827.48;104843;1291;62984;-81
2024/04/03 07:27:49;;;;;;;;;;;;;;;20.78;34.58;100829.95;104979;1291;61036;-81
2024/04/03 07:30:14;;;;;;;;;;;;;;;20.78;34.46;100829.41;105107;1291;62043;-81
2024/04/03 07:32:40;;;;;;;;;;;;;;;20.79;34.67;100830.06;104980;1290;62971;-81
2024/04/03 07:35:06;;;;;;;;;;;;;;;20.80;34.46;100826.27;104260;1292;63558;-80
2024/04/03 07:37:31;;;;;;;;;;;;;;;20.79;34.39;100822.04;104195;1291;61336;-81
2024/04/03 07:39:58;;;;;;;;;;;;;;;20.78;34.37;100822.42;104423;1291;63043;-82
2024/04/03 07:42:24;;;;;;;;;;;;;;;20.78;34.13;100823.16;104159;1290;62940;-81
2024/04/03 07:44:50;;;;;;;;;;;;;;;20.79;34.17;100825.25;104252;1291;62878;-82
2024/04/03 07:47:16;;;;;;;;;;;;;;;20.79;34.07;100828.63;104215;1289;63007;-81
2024/04/03 07:49:41;;;;;;;;;;;;;;;20.80;33.97;100825.68;104428;1292;62928;-80
2024/04/03 07:52:10;;;;;;;;;;;;;;;20.82;34.12;100825.75;104503;1292;61645;-82
2024/04/03 07:54:37;;;;;;;;;;;;;;;20.80;33.80;100816.23;105469;1290;63100;-80
2024/04/03 07:57:05;;;;;;;;;;;;;;;20.80;33.95;100807.84;105389;1292;72303;-82
2024/04/03 07:59:32;;;;;;;;;;;;;;;20.83;34.18;100807.45;105418;1294;75173;-80
2024/04/03 08:01:58;;;;;;;;;;;;;;;20.87;34.21;100802.31;105557;1291;62844;-80
2024/04/03 08:04:23;;;;;;;;;;;;;;;20.90;34.23;100801.90;104278;1291;63442;-80
2024/04/03 08:06:49;;;;;;;;;;;;;;;20.89;34.27;100805.46;104010;1294;62879;-80
2024/04/03 08:09:14;;;;;;;;;;;;;;;20.88;34.16;100805.66;103998;1291;63878;-80
2024/04/03 08:11:41;;;;;;;;;;;;;;;20.89;34.05;100811.69;104357;1291;61573;-82
2024/04/03 08:14:07;;;;;;;;;;;;;;;20.87;34.08;100816.95;104315;1291;62998;-82
2024/04/03 08:16:34;;;;;;;;;;;;;;;20.86;33.97;100818.11;104417;1294;62808;-81
2024/04/03 08:19:01;;;;;;;;;;;;;;;20.86;34.03;100810.77;104115;1292;72481;-81
2024/04/03 08:21:26;;;;;;;;;;;;;;;20.87;34.05;100815.36;104110;1294;64234;-81
2024/04/03 08:23:52;;;;;;;;;;;;;;;20.88;34.00;100817.45;103921;1291;63347;-82
2024/04/03 08:26:17;;;;;;;;;;;;;;;20.90;33.84;100822.20;103893;1295;65488;-83
2024/04/03 08:28:43;;;;;;;;;;;;;;;20.89;34.12;100819.91;103901;1290;63108;-81
2024/04/03 08:31:15;;;;;;;;;;;;;;;20.89;33.92;100824.38;105027;1290;73261;-82
2024/04/03 08:33:44;;;;;;;;;;;;;;;20.88;33.77;100824.41;105084;1291;76003;-82
2024/04/03 08:36:13;;;;;;;;;;;;;;;20.87;33.91;100821.97;104959;1291;62758;-82
2024/04/03 08:38:38;;;;;;;;;;;;;;;20.86;33.90;100828.16;104805;1292;63749;-83
2024/04/03 08:41:04;;;;;;;;;;;;;;;20.86;33.91;100834.80;104897;1292;62939;-81
2024/04/03 08:43:30;;;;;;;;;;;;;;;20.86;33.91;100833.35;104926;1291;63895;-82
2024/04/03 08:45:55;;;;;;;;;;;;;;;20.85;33.83;100838.58;104581;1290;63001;-81
2024/04/03 08:48:22;;;;;;;;;;;;;;;20.86;33.91;100837.98;104864;1294;62932;-82
2024/04/03 08:50:56;;;;;;;;;;;;;;;20.86;33.92;100841.89;105038;1291;63973;-82
2024/04/03 08:53:23;;;;;;;;;;;;;;;20.86;33.88;100847.68;104821;1294;72346;-81
2024/04/03 08:55:50;;;;;;;;;;;;;;;20.87;34.01;100845.23;104202;1294;62892;-81
2024/04/03 08:58:15;;;;;;;;;;;;;;;20.94;34.30;100838.84;104995;1291;60689;-82
2024/04/03 09:00:41;;;;;;;;;;;;;;;21.01;34.52;100840.88;105082;1294;60809;-81
2024/04/03 09:03:07;;;;;;;;;;;;;;;21.05;34.86;100842.53;104432;1294;62813;-81
2024/04/03 09:05:32;;;;;;;;;;;;;;;21.08;35.04;100844.83;104391;1291;61842;-81
2024/04/03 09:08:02;;;;;;;;;;;;;;;21.14;35.23;100839.61;105106;1289;60830;-80
2024/04/03 09:10:33;;;;;;;;;;;;;;;21.19;35.39;100838.17;104113;1289;61053;-80
2024/04/03 09:13:07;;;;;;;;;;;;;;;21.22;35.42;100830.95;104392;1291;71369;-81
2024/04/03 09:15:33;;;;;;;;;;;;;;;21.19;35.34;100832.06;104291;1290;76175;-82
2024/04/03 09:18:09;;;;;;;;;;;;;;;21.17;35.32;100840.48;103982;1292;63014;-82
2024/04/03 09:20:40;;;;;;;;;;;;;;;21.15;35.22;100830.73;103982;1292;62022;-82
2024/04/03 09:23:08;;;;;;;;;;;;;;;21.15;35.30;100823.09;103878;1294;72482;-80
2024/04/03 09:25:37;;;;;;;;;;;;;;;21.14;35.26;100816.15;103962;1291;76959;-81
2024/04/03 09:28:03;;;;;;;;;;;;;;;21.14;35.19;100814.55;103591;1293;66426;-81
2024/04/03 09:30:34;;;;;;;;;;;;;;;21.13;35.18;100818.16;106110;1290;61723;-81
2024/04/03 09:33:00;;;;;;;;;;;;;;;21.13;35.07;100810.73;105967;1292;61455;-82
2024/04/03 09:35:27;;;;;;;;;;;;;;;21.14;35.05;100813.48;106112;1292;61240;-80
2024/04/03 09:37:54;;;;;;;;;;;;;;;21.13;34.95;100818.75;105951;1292;61265;-84
2024/04/03 09:40:20;;;;;;;;;;;;;;;21.11;34.83;100818.73;106006;1294;60651;-80
2024/04/03 09:42:45;;;;;;;;;;;;;;;21.09;34.86;100820.41;105986;1289;60465;-84
2024/04/03 09:45:11;;;;;;;;;;;;;;;21.06;34.72;100819.05;106070;1290;60626;-80
2024/04/03 09:47:39;;;;;;;;;;;;;;;21.04;34.82;100821.36;105962;1290;62578;-80
2024/04/03 09:50:05;;;;;;;;;;;;;;;21.07;35.11;100813.45;105626;1292;60893;-81
2024/04/03 09:52:30;;;;;;;;;;;;;;;21.09;35.25;100816.16;104546;1290;62966;-81
2024/04/03 09:54:56;;;;;;;;;;;;;;;21.09;35.07;100810.42;103808;1294;62969;-80
2024/04/03 09:57:22;;;;;;;;;;;;;;;21.08;34.95;100807.23;103635;1292;62937;-82
2024/04/03 09:59:51;;;;;;;;;;;;;;;21.07;34.97;100797.13;104397;1293;60891;-81
2024/04/03 10:02:17;;;;;;;;;;;;;;;21.07;35.15;100797.69;104208;1295;63021;-81
2024/04/03 10:04:42;;;;;;;;;;;;;;;21.09;35.20;100799.33;104156;1295;60744;-82
2024/04/03 10:07:17;;;;;;;;;;;;;;;21.13;35.35;100796.71;104896;1292;62732;-83
2024/04/03 10:09:43;;;;;;;;;;;;;;;21.18;35.50;100798.91;104662;1292;62748;-82
2024/04/03 10:12:15;;;;;;;;;;;;;;;21.21;35.51;100803.09;104944;1290;62999;-81
2024/04/03 10:14:41;;;;;;;;;;;;;;;21.24;35.51;100804.86;104450;1289;72563;-82
2024/04/03 10:17:13;;;;;;;;;;;;;;;21.23;35.24;100799.72;104799;1295;63013;-83
2024/04/03 10:19:44;;;;;;;;;;;;;;;21.22;34.99;100793.73;104814;1294;62771;-81
2024/04/03 10:22:14;;;;;;;;;;;;;;;21.22;35.06;100790.91;104638;1292;63140;-83
2024/04/03 10:24:43;;;;;;;;;;;;;;;21.20;34.75;100787.23;104822;1290;72594;-81
2024/04/03 10:27:10;;;;;;;;;;;;;;;21.18;34.64;100795.30;104816;1289;76008;-82
2024/04/03 10:29:36;;;;;;;;;;;;;;;21.17;34.58;100796.05;104792;1293;62928;-83
2024/04/03 10:32:02;;;;;;;;;;;;;;;21.17;34.48;100797.16;103832;1290;63054;-80
2024/04/03 10:34:27;;;;;;;;;;;;;;;21.15;34.35;100793.89;103893;1292;63076;-81
2024/04/03 10:36:53;;;;;;;;;;;;;;;21.13;34.29;100791.52;103743;1289;64173;-80
2024/04/03 10:39:19;;;;;;;;;;;;;;;21.11;34.16;100803.80;103850;1290;62991;-80
2024/04/03 10:41:44;;;;;;;;;;;;;;;21.13;34.25;100801.96;103867;1290;63072;-82
2024/04/03 10:44:13;;;;;;;;;;;;;;;21.14;33.98;100796.48;103985;1291;63002;-81
2024/04/03 10:46:39;;;;;;;;;;;;;;;21.16;34.01;100802.77;104199;1294;72116;-81
2024/04/03 10:49:04;;;;;;;;;;;;;;;21.17;33.95;100798.27;104300;1291;62966;-81
2024/04/03 10:51:31;;;;;;;;;;;;;;;21.18;33.86;100784.21;103743;1290;62984;-82
2024/04/03 10:53:57;;;;;;;;;;;;;;;21.18;33.90;100783.84;106070;1294;60428;-82
2024/04/03 10:56:24;;;;;;;;;;;;;;;21.18;33.86;100778.98;105872;1289;61798;-81
2024/04/03 10:58:50;;;;;;;;;;;;;;;21.19;33.73;100788.59;106126;1289;60793;-81
2024/04/03 11:01:16;;;;;;;;;;;;;;;21.19;33.77;100780.35;106192;1289;60427;-81
2024/04/03 11:03:42;;;;;;;;;;;;;;;21.19;33.74;100780.88;105932;1289;60455;-82
2024/04/03 11:06:11;;;;;;;;;;;;;;;21.23;33.60;100772.71;106133;1291;60135;-83
2024/04/03 11:08:37;;;;;;;;;;;;;;;21.27;33.71;100767.76;105458;1294;63635;-81
2024/04/03 11:11:03;;;;;;;;;;;;;;;21.29;33.78;100761.57;105539;1290;63428;-82
2024/04/03 11:13:28;;;;;;;;;;;;;;;21.31;33.64;100755.02;105394;1289;61607;-81
2024/04/03 11:15:54;;;;;;;;;;;;;;;21.32;33.74;100761.93;104972;1293;62917;-81
2024/04/03 11:18:19;;;;;;;;;;;;;;;21.35;33.85;100756.31;104746;1293;62997;-82
2024/04/03 11:20:48;;;;;;;;;;;;;;;21.38;33.91;100756.04;104091;1289;74868;-82
2024/04/03 11:23:14;;;;;;;;;;;;;;;21.38;33.81;100754.64;104256;1290;62761;-82
2024/04/03 11:25:39;;;;;;;;;;;;;;;21.37;33.67;100747.58;104020;1291;63004;-81
2024/04/03 11:28:05;;;;;;;;;;;;;;;21.35;33.62;100745.73;103902;1291;62894;-83
2024/04/03 11:30:31;;;;;;;;;;;;;;;21.34;33.39;100741.16;104067;1290;62937;-82
2024/04/03 11:32:57;;;;;;;;;;;;;;;21.33;33.59;100737.30;104062;1293;62988;-82
2024/04/03 11:35:22;;;;;;;;;;;;;;;21.34;33.52;100740.98;104120;1289;63065;-80
2024/04/03 11:37:48;;;;;;;;;;;;;;;21.34;33.30;100739.90;104847;1294;62776;-80
2024/04/03 11:40:14;;;;;;;;;;;;;;;21.34;33.15;100739.04;104977;1292;62923;-79
2024/04/03 11:42:41;;;;;;;;;;;;;;;21.33;33.27;100733.02;104947;1294;61757;-80
2024/04/03 11:45:08;;;;;;;;;;;;;;;21.35;33.27;100726.08;104833;1289;61320;-78
2024/04/03 11:47:33;;;;;;;;;;;;;;;21.36;33.30;100720.44;105052;1289;61420;-80
2024/04/03 11:49:59;;;;;;;;;;;;;;;21.38;33.41;100717.28;104778;1290;62799;-79
2024/04/03 11:52:25;;;;;;;;;;;;;;;21.37;33.43;100713.88;105097;1292;62965;-79
2024/04/03 11:54:50;;;;;;;;;;;;;;;21.39;33.48;100710.68;104972;1289;61328;-80
2024/04/03 11:57:16;;;;;;;;;;;;;;;21.42;33.73;100708.16;105282;1292;61186;-81
2024/04/03 11:59:42;;;;;;;;;;;;;;;21.45;33.81;100705.27;105098;1290;60437;-80
2024/04/03 12:02:08;;;;;;;;;;;;;;;21.48;33.70;100695.06;105240;1294;61404;-80
2024/04/03 12:04:33;;;;;;;;;;;;;;;21.49;33.75;100694.06;105547;1292;60677;-79
2024/04/03 12:06:59;;;;;;;;;;;;;;;21.52;33.82;100697.63;105608;1289;60823;-79
2024/04/03 12:09:25;;;;;;;;;;;;;;;21.54;33.99;100695.27;105537;1290;62971;-79
2024/04/03 12:11:50;;;;;;;;;;;;;;;21.58;33.92;100695.38;105393;1291;60759;-79
2024/04/03 12:14:16;;;;;;;;;;;;;;;21.59;33.88;100699.75;105478;1295;61113;-79
2024/04/03 12:16:41;;;;;;;;;;;;;;;21.60;33.92;100692.89;105553;1291;61187;-80
2024/04/03 12:19:13;;;;;;;;;;;;;;;21.60;33.94;100687.67;105520;1289;61949;-78
2024/04/03 12:21:40;;;;;;;;;;;;;;;21.60;33.88;100680.52;105335;1291;60930;-79
2024/04/03 12:24:06;;;;;;;;;;;;;;;21.59;33.87;100686.14;105103;1294;72825;-80